Locke Mills, Maine
Current Conditions -  °F | °C
As of 7:52 PM on Friday 24 Oct 2014 (Local Time) from KBML Reporting Station
Overcast Overcast  
Wind Chill: 41°   Ceiling: 1500
Heat Index: 44°   Visibility: 10mi
Dew Point: 41°   Wind: 6mph
Humidity: 89%   Direction: 340°NNW
Pressure: 29.76"   Gusts: NA
Location:  44.4°N, 70.7°W
Report Text: KBML 242352Z AUTO 34005KT 10SM BKN015 OVC019 07/05 A2976 RMK AO2 RAB2255E12B28E38 SLP086 P0000 60000 T00670050 10083 20067 53012
Loading
Personal Weather Stations






























Interactive Weather Map
Tropical Storm Tracking
New forecast layout! Learn more

10-Day Weather Forecast

Advertisements
Track Severe Weather on mobile